Prospect, Connecticut
Current Conditions -  °F | °C
As of 7:53 AM on Thursday 23 Oct 2014 (Local Time) from KMMK Reporting Station
Overcast Overcast  
Wind Chill: 11°   Ceiling: 1700
Heat Index: 11°   Visibility: 10mi
Dew Point:   Wind: 13mph
Humidity: 83%   Direction: 360°N
Pressure: 29.67"   Gusts: 31mph
Location:  41.5°N, 72.98°W
Report Text: KMMK 231153Z AUTO 36011G27KT 10SM OVC017 11/08 A2967 RMK AO2 PK WND 03027/1148 SLP045 60004 70082 T01060078 10106 20100 55008 TSNO
Loading
Personal Weather Stations






























Interactive Weather Map
Tropical Storm Tracking
New forecast layout! Learn more

10-Day Weather Forecast

Advertisements
Track Severe Weather on mobile